sensor_id;sensor_type;location;lat;lon;timestamp;pressure;altitude;pressure_sealevel;temperature;humidity
36284;BME280;56085;48.910;9.478;2022-12-07T00:00:40;98262.81;;;2.52;96.45
36284;BME280;56085;48.910;9.478;2022-12-07T00:03:05;98260.91;;;2.53;96.71
36284;BME280;56085;48.910;9.478;2022-12-07T00:05:30;98250.00;;;2.53;96.54
36284;BME280;56085;48.910;9.478;2022-12-07T00:07:55;98260.91;;;2.53;96.84
36284;BME280;56085;48.910;9.478;2022-12-07T00:10:21;98256.84;;;2.50;96.63
36284;BME280;56085;48.910;9.478;2022-12-07T00:12:46;98262.81;;;2.52;96.71
36284;BME280;56085;48.910;9.478;2022-12-07T00:15:11;98257.47;;;2.47;96.65
36284;BME280;56085;48.910;9.478;2022-12-07T00:17:36;98260.22;;;2.47;97.04
36284;BME280;56085;48.910;9.478;2022-12-07T00:20:02;98253.44;;;2.44;97.08
36284;BME280;56085;48.910;9.478;2022-12-07T00:22:27;98258.41;;;2.42;96.98
36284;BME280;56085;48.910;9.478;2022-12-07T00:24:52;98252.66;;;2.44;97.08
36284;BME280;56085;48.910;9.478;2022-12-07T00:27:17;98258.91;;;2.44;96.70
36284;BME280;56085;48.910;9.478;2022-12-07T00:29:42;98260.00;;;2.43;96.62
36284;BME280;56085;48.910;9.478;2022-12-07T00:32:08;98260.00;;;2.43;96.80
36284;BME280;56085;48.910;9.478;2022-12-07T00:34:33;98261.13;;;2.42;96.88
36284;BME280;56085;48.910;9.478;2022-12-07T00:36:58;98262.44;;;2.45;96.82
36284;BME280;56085;48.910;9.478;2022-12-07T00:39:23;98254.75;;;2.47;96.54
36284;BME280;56085;48.910;9.478;2022-12-07T00:41:49;98251.19;;;2.47;96.66
36284;BME280;56085;48.910;9.478;2022-12-07T00:44:14;98254.53;;;2.43;96.89
36284;BME280;56085;48.910;9.478;2022-12-07T00:46:39;98249.09;;;2.43;97.09
36284;BME280;56085;48.910;9.478;2022-12-07T00:49:04;98250.72;;;2.44;97.42
36284;BME280;56085;48.910;9.478;2022-12-07T00:51:30;98252.13;;;2.42;96.93
36284;BME280;56085;48.910;9.478;2022-12-07T00:53:55;98258.09;;;2.44;97.03
36284;BME280;56085;48.910;9.478;2022-12-07T00:56:21;98256.47;;;2.43;97.33
36284;BME280;56085;48.910;9.478;2022-12-07T00:58:51;98259.69;;;2.45;96.93
36284;BME280;56085;48.910;9.478;2022-12-07T01:01:16;98259.22;;;2.43;97.56
36284;BME280;56085;48.910;9.478;2022-12-07T01:03:41;98259.00;;;2.39;97.10
36284;BME280;56085;48.910;9.478;2022-12-07T01:06:06;98263.88;;;2.42;97.48
36284;BME280;56085;48.910;9.478;2022-12-07T01:08:32;98251.34;;;2.41;97.63
36284;BME280;56085;48.910;9.478;2022-12-07T01:11:01;98262.56;;;2.40;97.00
36284;BME280;56085;48.910;9.478;2022-12-07T01:13:27;98261.72;;;2.39;97.02
36284;BME280;56085;48.910;9.478;2022-12-07T01:15:55;98264.16;;;2.41;97.68
36284;BME280;56085;48.910;9.478;2022-12-07T01:18:21;98269.91;;;2.39;97.19
36284;BME280;56085;48.910;9.478;2022-12-07T01:20:56;98267.50;;;2.38;97.22
36284;BME280;56085;48.910;9.478;2022-12-07T01:23:21;98262.56;;;2.40;97.43
36284;BME280;56085;48.910;9.478;2022-12-07T01:25:53;98274.09;;;2.37;97.53
36284;BME280;56085;48.910;9.478;2022-12-07T01:28:18;98272.16;;;2.37;97.45
36284;BME280;56085;48.910;9.478;2022-12-07T01:30:43;98262.88;;;2.38;96.97
36284;BME280;56085;48.910;9.478;2022-12-07T01:33:08;98267.81;;;2.36;97.53
36284;BME280;56085;48.910;9.478;2022-12-07T01:35:33;98272.47;;;2.36;97.61
36284;BME280;56085;48.910;9.478;2022-12-07T01:37:59;98268.94;;;2.35;97.51
36284;BME280;56085;48.910;9.478;2022-12-07T01:40:24;98267.00;;;2.36;96.85
36284;BME280;56085;48.910;9.478;2022-12-07T01:42:49;98267.81;;;2.36;97.44
36284;BME280;56085;48.910;9.478;2022-12-07T01:47:43;98268.72;;;2.32;97.01
36284;BME280;56085;48.910;9.478;2022-12-07T01:50:10;98275.59;;;2.29;96.99
36284;BME280;56085;48.910;9.478;2022-12-07T01:52:35;98265.31;;;2.26;97.21
36284;BME280;56085;48.910;9.478;2022-12-07T01:55:03;98278.03;;;2.31;97.09
36284;BME280;56085;48.910;9.478;2022-12-07T01:57:30;98279.66;;;2.32;97.10
36284;BME280;56085;48.910;9.478;2022-12-07T01:59:56;98286.72;;;2.33;97.56
36284;BME280;56085;48.910;9.478;2022-12-07T02:02:33;98280.16;;;2.34;96.76
36284;BME280;56085;48.910;9.478;2022-12-07T02:04:59;98280.16;;;2.34;97.05
36284;BME280;56085;48.910;9.478;2022-12-07T02:07:25;98271.16;;;2.33;96.97
36284;BME280;56085;48.910;9.478;2022-12-07T02:09:51;98269.84;;;2.31;96.94
36284;BME280;56085;48.910;9.478;2022-12-07T02:12:17;98273.19;;;2.27;96.89
36284;BME280;56085;48.910;9.478;2022-12-07T02:14:42;98275.13;;;2.27;97.17
36284;BME280;56085;48.910;9.478;2022-12-07T02:17:11;98271.38;;;2.23;96.78
36284;BME280;56085;48.910;9.478;2022-12-07T02:30:22;98254.41;;;2.26;96.62
36284;BME280;56085;48.910;9.478;2022-12-07T02:33:00;98255.53;;;2.25;96.61
36284;BME280;56085;48.910;9.478;2022-12-07T02:35:43;98268.88;;;2.26;96.89
36284;BME280;56085;48.910;9.478;2022-12-07T02:40:42;98260.84;;;2.30;96.53
36284;BME280;56085;48.910;9.478;2022-12-07T02:43:16;98257.75;;;2.23;96.71
36284;BME280;56085;48.910;9.478;2022-12-07T02:45:42;98252.19;;;2.28;96.78
36284;BME280;56085;48.910;9.478;2022-12-07T02:48:10;98251.59;;;2.17;96.52
36284;BME280;56085;48.910;9.478;2022-12-07T02:50:37;98247.34;;;2.25;96.71
36284;BME280;56085;48.910;9.478;2022-12-07T02:53:02;98251.50;;;2.22;96.75
36284;BME280;56085;48.910;9.478;2022-12-07T02:55:29;98250.88;;;2.25;96.36
36284;BME280;56085;48.910;9.478;2022-12-07T02:58:05;98244.00;;;2.28;96.63
36284;BME280;56085;48.910;9.478;2022-12-07T03:00:34;98237.41;;;2.29;97.08
36284;BME280;56085;48.910;9.478;2022-12-07T03:03:06;98235.81;;;2.28;96.55
36284;BME280;56085;48.910;9.478;2022-12-07T03:08:23;98241.44;;;2.32;96.74
36284;BME280;56085;48.910;9.478;2022-12-07T03:10:56;98239.03;;;2.30;96.49
36284;BME280;56085;48.910;9.478;2022-12-07T03:18:35;98240.75;;;2.26;96.29
36284;BME280;56085;48.910;9.478;2022-12-07T03:21:04;98243.78;;;2.24;96.25
36284;BME280;56085;48.910;9.478;2022-12-07T03:23:31;98239.34;;;2.29;96.92
36284;BME280;56085;48.910;9.478;2022-12-07T03:25:59;98240.38;;;2.19;96.68
36284;BME280;56085;48.910;9.478;2022-12-07T03:28:26;98239.75;;;2.22;96.43
36284;BME280;56085;48.910;9.478;2022-12-07T03:30:56;98234.59;;;2.20;96.47
36284;BME280;56085;48.910;9.478;2022-12-07T03:33:27;98242.91;;;2.15;96.71
36284;BME280;56085;48.910;9.478;2022-12-07T03:36:01;98236.94;;;2.13;96.39
36284;BME280;56085;48.910;9.478;2022-12-07T03:38:33;98239.00;;;2.07;96.55
36284;BME280;56085;48.910;9.478;2022-12-07T03:41:09;98233.84;;;2.06;96.49
36284;BME280;56085;48.910;9.478;2022-12-07T03:43:36;98234.13;;;2.04;96.42
36284;BME280;56085;48.910;9.478;2022-12-07T03:48:41;98232.47;;;1.95;96.13
36284;BME280;56085;48.910;9.478;2022-12-07T03:53:40;98232.16;;;1.82;96.32
36284;BME280;56085;48.910;9.478;2022-12-07T03:56:09;98227.84;;;1.81;96.61
36284;BME280;56085;48.910;9.478;2022-12-07T03:58:34;98223.19;;;1.82;96.41
36284;BME280;56085;48.910;9.478;2022-12-07T04:01:00;98218.22;;;1.84;96.32
36284;BME280;56085;48.910;9.478;2022-12-07T04:03:26;98216.63;;;1.83;96.39
36284;BME280;56085;48.910;9.478;2022-12-07T04:05:51;98208.34;;;1.74;96.46
36284;BME280;56085;48.910;9.478;2022-12-07T04:08:16;98191.00;;;1.70;96.56
36284;BME280;56085;48.910;9.478;2022-12-07T04:10:41;98191.22;;;1.60;96.59
36284;BME280;56085;48.910;9.478;2022-12-07T04:13:07;98184.13;;;1.59;96.52
36284;BME280;56085;48.910;9.478;2022-12-07T04:15:32;98192.13;;;1.55;96.34
36284;BME280;56085;48.910;9.478;2022-12-07T04:17:57;98188.41;;;1.51;96.55
36284;BME280;56085;48.910;9.478;2022-12-07T04:20:23;98184.53;;;1.52;96.29
36284;BME280;56085;48.910;9.478;2022-12-07T04:22:49;98180.41;;;1.54;96.73
36284;BME280;56085;48.910;9.478;2022-12-07T04:25:14;98193.41;;;1.57;96.78
36284;BME280;56085;48.910;9.478;2022-12-07T04:27:39;98189.50;;;1.64;96.58
36284;BME280;56085;48.910;9.478;2022-12-07T04:30:05;98190.28;;;1.64;96.46
36284;BME280;56085;48.910;9.478;2022-12-07T04:32:30;98194.53;;;1.70;96.71
36284;BME280;56085;48.910;9.478;2022-12-07T04:34:55;98196.13;;;1.71;96.65
36284;BME280;56085;48.910;9.478;2022-12-07T04:37:21;98180.59;;;1.72;96.62
36284;BME280;56085;48.910;9.478;2022-12-07T04:39:46;98174.34;;;1.71;96.82
36284;BME280;56085;48.910;9.478;2022-12-07T04:42:11;98176.25;;;1.71;96.66
36284;BME280;56085;48.910;9.478;2022-12-07T04:44:37;98183.28;;;1.86;96.91
36284;BME280;56085;48.910;9.478;2022-12-07T04:47:03;98185.31;;;2.17;96.73
36284;BME280;56085;48.910;9.478;2022-12-07T04:49:28;98176.09;;;2.26;96.75
36284;BME280;56085;48.910;9.478;2022-12-07T04:51:53;98176.41;;;2.25;96.86
36284;BME280;56085;48.910;9.478;2022-12-07T04:54:19;98188.53;;;2.19;96.91
36284;BME280;56085;48.910;9.478;2022-12-07T04:56:44;98211.59;;;2.13;96.96
36284;BME280;56085;48.910;9.478;2022-12-07T04:59:13;98214.25;;;2.04;96.90
36284;BME280;56085;48.910;9.478;2022-12-07T05:01:39;98198.50;;;2.01;96.61
36284;BME280;56085;48.910;9.478;2022-12-07T05:04:04;98193.97;;;1.96;96.63
36284;BME280;56085;48.910;9.478;2022-12-07T05:06:29;98197.81;;;1.95;96.66
36284;BME280;56085;48.910;9.478;2022-12-07T05:08:54;98218.44;;;1.87;96.68
36284;BME280;56085;48.910;9.478;2022-12-07T05:11:20;98213.38;;;1.81;96.22
36284;BME280;56085;48.910;9.478;2022-12-07T05:14:04;98210.25;;;1.73;96.51
36284;BME280;56085;48.910;9.478;2022-12-07T05:16:29;98210.25;;;1.73;96.22
36284;BME280;56085;48.910;9.478;2022-12-07T05:18:55;98204.63;;;1.70;96.52
36284;BME280;56085;48.910;9.478;2022-12-07T05:21:21;98213.59;;;1.70;96.63
36284;BME280;56085;48.910;9.478;2022-12-07T05:23:46;98214.69;;;1.69;96.49
36284;BME280;56085;48.910;9.478;2022-12-07T05:26:11;98206.25;;;1.71;96.61
36284;BME280;56085;48.910;9.478;2022-12-07T05:28:36;98215.22;;;1.71;96.50
36284;BME280;56085;48.910;9.478;2022-12-07T05:31:02;98200.09;;;1.65;96.65
36284;BME280;56085;48.910;9.478;2022-12-07T05:33:28;98202.59;;;1.62;96.48
36284;BME280;56085;48.910;9.478;2022-12-07T05:35:53;98204.22;;;1.63;96.68
36284;BME280;56085;48.910;9.478;2022-12-07T05:38:18;98200.97;;;1.61;96.68
36284;BME280;56085;48.910;9.478;2022-12-07T05:40:43;98207.25;;;1.61;96.55
36284;BME280;56085;48.910;9.478;2022-12-07T05:43:10;98208.06;;;1.62;96.87
36284;BME280;56085;48.910;9.478;2022-12-07T05:45:35;98214.34;;;1.62;96.52
36284;BME280;56085;48.910;9.478;2022-12-07T05:48:00;98213.50;;;1.62;97.18
36284;BME280;56085;48.910;9.478;2022-12-07T05:50:25;98216.84;;;1.59;96.68
36284;BME280;56085;48.910;9.478;2022-12-07T05:52:51;98209.59;;;1.54;96.89
36284;BME280;56085;48.910;9.478;2022-12-07T05:55:16;98213.09;;;1.54;96.77
36284;BME280;56085;48.910;9.478;2022-12-07T05:57:41;98218.84;;;1.53;97.02
36284;BME280;56085;48.910;9.478;2022-12-07T06:00:26;98207.47;;;1.51;96.72
36284;BME280;56085;48.910;9.478;2022-12-07T06:02:51;98199.59;;;1.49;96.92
36284;BME280;56085;48.910;9.478;2022-12-07T06:05:17;98209.78;;;1.44;96.83
36284;BME280;56085;48.910;9.478;2022-12-07T06:07:42;98206.84;;;1.40;97.07
36284;BME280;56085;48.910;9.478;2022-12-07T06:10:07;98204.34;;;1.44;97.22
36284;BME280;56085;48.910;9.478;2022-12-07T06:12:32;98213.00;;;1.46;96.93
36284;BME280;56085;48.910;9.478;2022-12-07T06:15:02;98207.25;;;1.47;97.21
36284;BME280;56085;48.910;9.478;2022-12-07T06:17:27;98204.34;;;1.44;96.93
36284;BME280;56085;48.910;9.478;2022-12-07T06:19:52;98207.69;;;1.41;96.94
36284;BME280;56085;48.910;9.478;2022-12-07T06:22:18;98196.78;;;1.41;97.20
36284;BME280;56085;48.910;9.478;2022-12-07T06:24:43;98199.19;;;1.42;97.30
36284;BME280;56085;48.910;9.478;2022-12-07T06:27:08;98205.44;;;1.43;96.85
36284;BME280;56085;48.910;9.478;2022-12-07T06:29:33;98211.28;;;1.50;97.24
36284;BME280;56085;48.910;9.478;2022-12-07T06:31:59;98209.66;;;1.49;97.24
36284;BME280;56085;48.910;9.478;2022-12-07T06:34:24;98208.25;;;1.51;96.93
36284;BME280;56085;48.910;9.478;2022-12-07T06:36:50;98227.03;;;1.53;97.28
36284;BME280;56085;48.910;9.478;2022-12-07T06:39:23;98225.63;;;1.55;97.25
36284;BME280;56085;48.910;9.478;2022-12-07T06:41:49;98230.59;;;1.53;97.38
36284;BME280;56085;48.910;9.478;2022-12-07T06:44:14;98216.97;;;1.53;97.37
36284;BME280;56085;48.910;9.478;2022-12-07T06:46:39;98222.41;;;1.53;97.10
36284;BME280;56085;48.910;9.478;2022-12-07T06:49:05;98220.47;;;1.54;97.29
36284;BME280;56085;48.910;9.478;2022-12-07T06:51:30;98219.38;;;1.55;97.23
36284;BME280;56085;48.910;9.478;2022-12-07T06:53:56;98225.31;;;1.57;97.28
36284;BME280;56085;48.910;9.478;2022-12-07T06:56:21;98222.59;;;1.57;97.04
36284;BME280;56085;48.910;9.478;2022-12-07T06:58:47;98229.97;;;1.56;96.93
36284;BME280;56085;48.910;9.478;2022-12-07T07:01:13;98228.84;;;1.57;97.18
36284;BME280;56085;48.910;9.478;2022-12-07T07:03:39;98226.66;;;1.60;97.09
36284;BME280;56085;48.910;9.478;2022-12-07T07:06:05;98228.53;;;1.59;97.01
36284;BME280;56085;48.910;9.478;2022-12-07T07:08:30;98220.66;;;1.57;96.64
36284;BME280;56085;48.910;9.478;2022-12-07T07:10:55;98221.72;;;1.48;97.01
36284;BME280;56085;48.910;9.478;2022-12-07T07:13:21;98235.63;;;1.60;96.77
36284;BME280;56085;48.910;9.478;2022-12-07T07:15:46;98225.22;;;1.62;97.05
36284;BME280;56085;48.910;9.478;2022-12-07T07:18:11;98229.25;;;1.65;96.88
36284;BME280;56085;48.910;9.478;2022-12-07T07:20:36;98234.69;;;1.65;96.78
36284;BME280;56085;48.910;9.478;2022-12-07T07:23:02;98233.91;;;1.64;96.91
36284;BME280;56085;48.910;9.478;2022-12-07T07:25:27;98231.97;;;1.65;96.64
36284;BME280;56085;48.910;9.478;2022-12-07T07:27:52;98237.13;;;1.66;96.78
36284;BME280;56085;48.910;9.478;2022-12-07T07:30:17;98237.34;;;1.70;96.58
36284;BME280;56085;48.910;9.478;2022-12-07T07:32:43;98240.75;;;1.76;96.63
36284;BME280;56085;48.910;9.478;2022-12-07T07:35:08;98238.22;;;1.79;96.51
36284;BME280;56085;48.910;9.478;2022-12-07T07:37:33;98236.91;;;1.77;96.55
36284;BME280;56085;48.910;9.478;2022-12-07T07:39:58;98234.88;;;1.82;96.54
36284;BME280;56085;48.910;9.478;2022-12-07T07:42:23;98232.78;;;1.79;96.36
36284;BME280;56085;48.910;9.478;2022-12-07T07:44:49;98239.53;;;1.82;96.40
36284;BME280;56085;48.910;9.478;2022-12-07T07:47:14;98245.00;;;1.82;96.38
36284;BME280;56085;48.910;9.478;2022-12-07T07:49:39;98239.72;;;1.85;96.55
36284;BME280;56085;48.910;9.478;2022-12-07T07:52:05;98240.72;;;1.89;96.44
36284;BME280;56085;48.910;9.478;2022-12-07T07:54:30;98247.50;;;1.92;96.40
36284;BME280;56085;48.910;9.478;2022-12-07T07:56:56;98244.47;;;1.94;96.43
36284;BME280;56085;48.910;9.478;2022-12-07T07:59:21;98245.78;;;1.96;95.96
36284;BME280;56085;48.910;9.478;2022-12-07T08:01:46;98245.34;;;2.03;96.27
36284;BME280;56085;48.910;9.478;2022-12-07T08:04:11;98253.22;;;2.04;95.91
36284;BME280;56085;48.910;9.478;2022-12-07T08:06:36;98251.31;;;2.05;95.92
36284;BME280;56085;48.910;9.478;2022-12-07T08:09:02;98242.41;;;2.13;95.78
36284;BME280;56085;48.910;9.478;2022-12-07T08:11:27;98249.78;;;2.13;95.96
36284;BME280;56085;48.910;9.478;2022-12-07T08:13:52;98248.69;;;2.14;95.52
36284;BME280;56085;48.910;9.478;2022-12-07T08:16:18;98250.19;;;2.20;95.89
36284;BME280;56085;48.910;9.478;2022-12-07T08:18:43;98247.69;;;2.09;95.86
36284;BME280;56085;48.910;9.478;2022-12-07T08:21:12;98245.44;;;2.12;95.56
36284;BME280;56085;48.910;9.478;2022-12-07T08:23:38;98253.13;;;2.23;95.40
36284;BME280;56085;48.910;9.478;2022-12-07T08:26:04;98244.31;;;2.26;95.42
36284;BME280;56085;48.910;9.478;2022-12-07T08:28:29;98258.75;;;2.27;95.20
36284;BME280;56085;48.910;9.478;2022-12-07T08:30:58;98256.41;;;2.34;94.84
36284;BME280;56085;48.910;9.478;2022-12-07T08:33:23;98261.41;;;2.41;95.44
36284;BME280;56085;48.910;9.478;2022-12-07T08:35:50;98253.31;;;2.50;94.95
36284;BME280;56085;48.910;9.478;2022-12-07T08:38:15;98263.44;;;2.49;95.26
36284;BME280;56085;48.910;9.478;2022-12-07T08:40:40;98257.88;;;2.54;94.78
36284;BME280;56085;48.910;9.478;2022-12-07T08:43:05;98263.00;;;2.56;94.95
36284;BME280;56085;48.910;9.478;2022-12-07T08:45:30;98256.94;;;2.59;94.74
36284;BME280;56085;48.910;9.478;2022-12-07T08:48:02;98252.47;;;2.63;94.68
36284;BME280;56085;48.910;9.478;2022-12-07T08:50:28;98247.81;;;2.64;94.70
36284;BME280;56085;48.910;9.478;2022-12-07T08:52:54;98253.16;;;2.69;94.77
36284;BME280;56085;48.910;9.478;2022-12-07T08:55:21;98265.06;;;2.73;94.44
36284;BME280;56085;48.910;9.478;2022-12-07T08:57:46;98267.72;;;2.87;93.96
36284;BME280;56085;48.910;9.478;2022-12-07T09:00:12;98262.38;;;2.82;93.89
36284;BME280;56085;48.910;9.478;2022-12-07T09:02:37;98262.63;;;2.94;93.98
36284;BME280;56085;48.910;9.478;2022-12-07T09:05:03;98253.34;;;2.95;93.82
36284;BME280;56085;48.910;9.478;2022-12-07T09:07:28;98265.06;;;2.95;93.84
36284;BME280;56085;48.910;9.478;2022-12-07T09:09:55;98263.81;;;3.02;93.38
36284;BME280;56085;48.910;9.478;2022-12-07T09:12:20;98265.75;;;3.01;92.67
36284;BME280;56085;48.910;9.478;2022-12-07T09:14:46;98265.59;;;3.06;92.78
36284;BME280;56085;48.910;9.478;2022-12-07T09:17:11;98262.75;;;3.11;93.28
36284;BME280;56085;48.910;9.478;2022-12-07T09:19:37;98257.59;;;3.10;92.67
36284;BME280;56085;48.910;9.478;2022-12-07T09:22:03;98253.91;;;3.14;92.92
36284;BME280;56085;48.910;9.478;2022-12-07T09:24:29;98256.13;;;3.12;92.34
36284;BME280;56085;48.910;9.478;2022-12-07T09:26:54;98245.78;;;3.23;92.08
36284;BME280;56085;48.910;9.478;2022-12-07T09:29:20;98255.75;;;3.28;92.01
36284;BME280;56085;48.910;9.478;2022-12-07T09:31:45;98253.84;;;3.37;91.85
36284;BME280;56085;48.910;9.478;2022-12-07T09:34:10;98249.84;;;3.35;92.01
36284;BME280;56085;48.910;9.478;2022-12-07T09:36:36;98256.75;;;3.32;91.47
36284;BME280;56085;48.910;9.478;2022-12-07T09:39:01;98252.53;;;3.26;91.73
36284;BME280;56085;48.910;9.478;2022-12-07T09:41:27;98255.94;;;3.31;91.04
36284;BME280;56085;48.910;9.478;2022-12-07T09:43:57;98256.00;;;3.40;90.84
36284;BME280;56085;48.910;9.478;2022-12-07T09:46:24;98248.13;;;3.47;90.73
36284;BME280;56085;48.910;9.478;2022-12-07T09:48:50;98252.47;;;3.48;90.39
36284;BME280;56085;48.910;9.478;2022-12-07T09:51:18;98247.50;;;3.51;90.20
36284;BME280;56085;48.910;9.478;2022-12-07T09:53:43;98237.53;;;3.55;91.03
36284;BME280;56085;48.910;9.478;2022-12-07T09:56:13;98243.81;;;3.55;90.71
36284;BME280;56085;48.910;9.478;2022-12-07T09:58:39;98238.34;;;3.55;90.62
36284;BME280;56085;48.910;9.478;2022-12-07T10:01:09;98240.09;;;3.51;89.88
36284;BME280;56085;48.910;9.478;2022-12-07T10:03:37;98239.91;;;3.47;89.76
36284;BME280;56085;48.910;9.478;2022-12-07T10:06:03;98238.13;;;3.43;90.00
36284;BME280;56085;48.910;9.478;2022-12-07T10:08:31;98237.81;;;3.44;90.22
36284;BME280;56085;48.910;9.478;2022-12-07T10:10:56;98223.31;;;3.35;89.73
36284;BME280;56085;48.910;9.478;2022-12-07T10:13:33;98220.09;;;3.33;89.25
36284;BME280;56085;48.910;9.478;2022-12-07T10:15:58;98222.53;;;3.35;89.03
36284;BME280;56085;48.910;9.478;2022-12-07T10:23:36;98219.28;;;3.32;89.19
36284;BME280;56085;48.910;9.478;2022-12-07T10:26:19;98215.09;;;3.26;89.09
36284;BME280;56085;48.910;9.478;2022-12-07T10:28:44;98222.97;;;3.28;89.00
36284;BME280;56085;48.910;9.478;2022-12-07T10:31:17;98217.50;;;3.28;88.61
36284;BME280;56085;48.910;9.478;2022-12-07T10:33:51;98211.22;;;3.27;88.54
36284;BME280;56085;48.910;9.478;2022-12-07T10:38:46;98217.50;;;3.28;88.47
36284;BME280;56085;48.910;9.478;2022-12-07T10:41:12;98211.22;;;3.27;88.94
36284;BME280;56085;48.910;9.478;2022-12-07T10:43:37;98208.97;;;3.29;88.37
36284;BME280;56085;48.910;9.478;2022-12-07T10:46:24;98208.34;;;3.32;88.42
36284;BME280;56085;48.910;9.478;2022-12-07T10:48:57;98208.03;;;3.34;88.50
36284;BME280;56085;48.910;9.478;2022-12-07T11:01:45;98189.72;;;3.35;87.90
36284;BME280;56085;48.910;9.478;2022-12-07T11:04:24;98194.53;;;3.29;88.13
36284;BME280;56085;48.910;9.478;2022-12-07T11:07:01;98186.75;;;3.22;87.85
36284;BME280;56085;48.910;9.478;2022-12-07T11:12:06;98183.59;;;3.29;87.83
36284;BME280;56085;48.910;9.478;2022-12-07T11:14:36;98178.59;;;3.31;87.65
36284;BME280;56085;48.910;9.478;2022-12-07T11:17:07;98178.91;;;3.29;87.54
36284;BME280;56085;48.910;9.478;2022-12-07T11:19:46;98174.56;;;3.28;87.63
36284;BME280;56085;48.910;9.478;2022-12-07T11:25:13;98174.59;;;3.37;87.35
36284;BME280;56085;48.910;9.478;2022-12-07T11:27:44;98174.25;;;3.30;87.86
36284;BME280;56085;48.910;9.478;2022-12-07T11:32:56;98164.81;;;3.36;87.75
36284;BME280;56085;48.910;9.478;2022-12-07T11:38:09;98157.06;;;3.29;87.67
36284;BME280;56085;48.910;9.478;2022-12-07T11:40:36;98155.44;;;3.28;87.71
36284;BME280;56085;48.910;9.478;2022-12-07T11:43:09;98156.59;;;3.27;87.20
36284;BME280;56085;48.910;9.478;2022-12-07T11:45:41;98152.25;;;3.35;88.10
36284;BME280;56085;48.910;9.478;2022-12-07T11:48:11;98151.16;;;3.36;87.82
36284;BME280;56085;48.910;9.478;2022-12-07T11:50:40;98149.69;;;3.39;87.41
36284;BME280;56085;48.910;9.478;2022-12-07T11:58:15;98147.78;;;3.39;87.47
36284;BME280;56085;48.910;9.478;2022-12-07T12:00:46;98133.59;;;3.37;88.28
36284;BME280;56085;48.910;9.478;2022-12-07T12:03:15;98136.84;;;3.39;87.68
36284;BME280;56085;48.910;9.478;2022-12-07T12:05:45;98137.19;;;3.46;88.09
36284;BME280;56085;48.910;9.478;2022-12-07T12:08:18;98125.94;;;3.48;87.71
36284;BME280;56085;48.910;9.478;2022-12-07T12:10:58;98128.16;;;3.46;87.85
36284;BME280;56085;48.910;9.478;2022-12-07T12:16:08;98128.97;;;3.46;88.03
36284;BME280;56085;48.910;9.478;2022-12-07T12:21:12;98123.22;;;3.57;88.10
36284;BME280;56085;48.910;9.478;2022-12-07T12:26:20;98121.13;;;3.62;87.64
36284;BME280;56085;48.910;9.478;2022-12-07T12:28:51;98118.41;;;3.80;88.01
36284;BME280;56085;48.910;9.478;2022-12-07T12:33:47;98118.91;;;4.17;88.20
36284;BME280;56085;48.910;9.478;2022-12-07T12:36:21;98122.56;;;4.39;88.43
36284;BME280;56085;48.910;9.478;2022-12-07T12:38:49;98120.16;;;4.37;88.28
36284;BME280;56085;48.910;9.478;2022-12-07T12:43:58;98117.59;;;4.06;87.76
36284;BME280;56085;48.910;9.478;2022-12-07T12:51:39;98112.44;;;3.69;87.39
36284;BME280;56085;48.910;9.478;2022-12-07T12:54:05;98110.34;;;3.66;87.15
36284;BME280;56085;48.910;9.478;2022-12-07T12:59:22;98107.28;;;3.59;87.60
36284;BME280;56085;48.910;9.478;2022-12-07T13:01:49;98092.50;;;3.51;87.86
36284;BME280;56085;48.910;9.478;2022-12-07T13:04:25;98097.63;;;3.53;87.53
36284;BME280;56085;48.910;9.478;2022-12-07T13:06:52;98093.78;;;3.45;87.54
36284;BME280;56085;48.910;9.478;2022-12-07T13:09:22;98104.06;;;3.48;87.47
36284;BME280;56085;48.910;9.478;2022-12-07T13:11:48;98095.34;;;3.46;87.84
36284;BME280;56085;48.910;9.478;2022-12-07T13:16:58;98097.75;;;3.30;87.84
36284;BME280;56085;48.910;9.478;2022-12-07T13:24:54;98085.34;;;3.24;87.07
36284;BME280;56085;48.910;9.478;2022-12-07T13:27:20;98085.53;;;3.27;87.53
36284;BME280;56085;48.910;9.478;2022-12-07T13:29:46;98079.56;;;3.25;87.37
36284;BME280;56085;48.910;9.478;2022-12-07T13:32:29;98085.69;;;3.31;87.52
36284;BME280;56085;48.910;9.478;2022-12-07T13:34:55;98077.34;;;3.36;86.88
36284;BME280;56085;48.910;9.478;2022-12-07T13:39:49;98080.41;;;3.35;87.24
36284;BME280;56085;48.910;9.478;2022-12-07T13:42:28;98084.28;;;3.42;87.21
36284;BME280;56085;48.910;9.478;2022-12-07T13:44:54;98075.09;;;3.38;87.41
36284;BME280;56085;48.910;9.478;2022-12-07T13:47:41;98079.91;;;3.41;87.58
36284;BME280;56085;48.910;9.478;2022-12-07T13:52:50;98080.75;;;3.42;87.49
36284;BME280;56085;48.910;9.478;2022-12-07T13:55:19;98075.75;;;3.44;87.59
36284;BME280;56085;48.910;9.478;2022-12-07T13:57:45;98068.53;;;3.48;87.92
36284;BME280;56085;48.910;9.478;2022-12-07T14:00:17;98066.44;;;3.45;87.43
36284;BME280;56085;48.910;9.478;2022-12-07T14:03:03;98073.69;;;3.49;87.45
36284;BME280;56085;48.910;9.478;2022-12-07T14:05:30;98074.47;;;3.50;87.30
36284;BME280;56085;48.910;9.478;2022-12-07T14:12:58;98077.38;;;3.45;87.78
36284;BME280;56085;48.910;9.478;2022-12-07T14:15:26;98076.72;;;3.39;88.06
36284;BME280;56085;48.910;9.478;2022-12-07T14:17:53;98075.28;;;3.42;87.83
36284;BME280;56085;48.910;9.478;2022-12-07T14:20:31;98075.28;;;3.42;87.38
36284;BME280;56085;48.910;9.478;2022-12-07T14:22:57;98076.06;;;3.42;87.70
36284;BME280;56085;48.910;9.478;2022-12-07T14:25:24;98073.97;;;3.39;87.29
36284;BME280;56085;48.910;9.478;2022-12-07T14:30:14;98075.09;;;3.38;86.98
36284;BME280;56085;48.910;9.478;2022-12-07T14:32:40;98075.09;;;3.38;87.56
36284;BME280;56085;48.910;9.478;2022-12-07T14:35:09;98069.00;;;3.41;87.11
36284;BME280;56085;48.910;9.478;2022-12-07T14:37:38;98077.38;;;3.45;87.96
36284;BME280;56085;48.910;9.478;2022-12-07T14:40:04;98076.41;;;3.49;87.50
36284;BME280;56085;48.910;9.478;2022-12-07T14:42:29;98075.44;;;3.45;88.04
36284;BME280;56085;48.910;9.478;2022-12-07T14:44:56;98060.47;;;3.43;87.97
36284;BME280;56085;48.910;9.478;2022-12-07T14:47:21;98068.00;;;3.37;87.47
36284;BME280;56085;48.910;9.478;2022-12-07T14:49:47;98065.13;;;3.34;87.73
36284;BME280;56085;48.910;9.478;2022-12-07T14:52:13;98068.00;;;3.28;87.46
36284;BME280;56085;48.910;9.478;2022-12-07T14:54:40;98069.94;;;3.28;87.56